createdAt,value
2023-08-15T00:03:48.426Z,97568.47
2023-08-15T00:07:52.776Z,97568.94
2023-08-15T00:11:58.461Z,97570.53
2023-08-15T00:16:04.314Z,97572.16
2023-08-15T00:20:09.855Z,97567.41
2023-08-15T00:24:14.630Z,97571.69
2023-08-15T00:28:17.988Z,97576.19
2023-08-15T00:32:23.301Z,97579.06
2023-08-15T00:36:27.293Z,97576.31
2023-08-15T00:40:30.680Z,97583.03
2023-08-15T00:44:34.383Z,97573.00
2023-08-15T00:48:39.684Z,97580.53
2023-08-15T00:52:44.049Z,97579.50
2023-08-15T00:56:48.115Z,97580.06
2023-08-15T01:00:53.559Z,97585.94
2023-08-15T01:04:59.149Z,97576.50
2023-08-15T01:09:02.590Z,97585.59
2023-08-15T01:13:10.941Z,97589.53
2023-08-15T01:17:22.914Z,97591.63
2023-08-15T01:21:35.008Z,97591.25
2023-08-15T01:25:44.573Z,97600.69
2023-08-15T01:29:48.768Z,97595.50
2023-08-15T01:34:01.276Z,97589.03
2023-08-15T01:38:10.460Z,97581.78
2023-08-15T01:42:16.881Z,97596.72
2023-08-15T01:46:21.187Z,97583.81
2023-08-15T01:50:25.197Z,97588.97
2023-08-15T01:54:29.138Z,97583.56
2023-08-15T01:58:34.506Z,97585.06
2023-08-15T02:02:38.456Z,97584.78
2023-08-15T02:06:43.512Z,97580.84
2023-08-15T02:10:46.916Z,97585.88
2023-08-15T02:14:52.075Z,97585.94
2023-08-15T02:18:57.042Z,97588.47
2023-08-15T02:23:00.554Z,97581.22
2023-08-15T02:27:04.414Z,97583.25
2023-08-15T02:31:12.074Z,97571.50
2023-08-15T02:35:15.569Z,97584.97
2023-08-15T02:39:19.006Z,97583.53
2023-08-15T02:43:22.528Z,97585.59
2023-08-15T02:47:27.701Z,97569.50
2023-08-15T02:51:31.557Z,97574.00
2023-08-15T02:55:35.600Z,97577.44
2023-08-15T02:59:39.986Z,97571.56
2023-08-15T03:03:44.955Z,97578.69
2023-08-15T03:07:48.294Z,97575.47
2023-08-15T03:11:51.577Z,97579.97
2023-08-15T03:15:55.999Z,97585.47
2023-08-15T03:20:01.517Z,97581.22
2023-08-15T03:24:05.412Z,97574.97
2023-08-15T03:28:09.015Z,97580.13
2023-08-15T03:32:12.479Z,97584.03
2023-08-15T03:36:17.524Z,97586.28
2023-08-15T03:40:20.984Z,97586.38
2023-08-15T03:44:25.062Z,97593.13
2023-08-15T03:48:31.781Z,97595.19
2023-08-15T03:52:37.284Z,97600.50
2023-08-15T03:56:43.374Z,97606.81
2023-08-15T04:00:47.178Z,97608.63
2023-08-15T04:04:50.920Z,97609.47
2023-08-15T04:08:55.865Z,97606.59
2023-08-15T04:12:59.645Z,97611.06
2023-08-15T04:17:03.279Z,97613.06
2023-08-15T04:21:07.043Z,97615.25
2023-08-15T04:25:12.432Z,97616.22
2023-08-15T04:29:15.940Z,97622.69
2023-08-15T04:33:19.385Z,97616.94
2023-08-15T04:37:23.151Z,97627.31
2023-08-15T04:41:28.785Z,97621.78
2023-08-15T04:45:35.052Z,97621.78
2023-08-15T04:49:38.653Z,97630.53
2023-08-15T04:53:42.585Z,97634.59
2023-08-15T04:57:47.614Z,97631.28
2023-08-15T05:01:50.976Z,97631.41
2023-08-15T05:05:54.421Z,97632.97
2023-08-15T05:09:57.945Z,97636.69
2023-08-15T05:14:04.383Z,97642.88
2023-08-15T05:18:08.628Z,97647.63
2023-08-15T05:22:12.678Z,97653.19
2023-08-15T05:26:16.309Z,97655.53
2023-08-15T05:30:21.380Z,97659.50
2023-08-15T05:34:26.244Z,97659.97
2023-08-15T05:38:29.440Z,97665.56
2023-08-15T05:42:35.390Z,97666.81
2023-08-15T05:46:40.424Z,97663.63
2023-08-15T05:50:44.283Z,97673.91
2023-08-15T05:54:47.813Z,97671.72
2023-08-15T05:58:50.964Z,97668.75
2023-08-15T06:02:56.321Z,97666.56
2023-08-15T06:06:59.876Z,97676.38
2023-08-15T06:11:03.273Z,97673.97
2023-08-15T06:15:07.728Z,97672.81
2023-08-15T06:19:12.730Z,97673.13
2023-08-15T06:23:16.458Z,97676.25
2023-08-15T06:27:20.219Z,97683.41
2023-08-15T06:31:23.933Z,97685.22
2023-08-15T06:35:30.052Z,97685.53
2023-08-15T06:39:33.879Z,97683.19
2023-08-15T06:43:38.066Z,97680.94
2023-08-15T06:47:41.890Z,97683.47
2023-08-15T06:51:47.509Z,97683.69
2023-08-15T06:55:52.425Z,97677.75
2023-08-15T06:59:56.100Z,97675.81
2023-08-15T07:03:59.719Z,97681.31
2023-08-15T07:08:05.617Z,97683.19
2023-08-15T07:12:09.962Z,97686.91
2023-08-15T07:16:15.303Z,97695.47
2023-08-15T07:20:18.785Z,97686.63
2023-08-15T07:24:24.274Z,97690.38
2023-08-15T07:28:29.561Z,97693.31
2023-08-15T07:32:33.196Z,97692.03
2023-08-15T07:36:37.554Z,97693.25
2023-08-15T07:40:42.839Z,97696.31
2023-08-15T07:44:46.076Z,97696.66
2023-08-15T07:48:50.008Z,97694.28
2023-08-15T07:52:53.757Z,97692.06
2023-08-15T07:56:59.142Z,97691.16
2023-08-15T08:01:02.685Z,97693.69
2023-08-15T08:05:08.246Z,97690.66
2023-08-15T08:09:12.160Z,97681.41
2023-08-15T08:13:20.553Z,97686.59
2023-08-15T08:17:25.337Z,97688.50
2023-08-15T08:21:28.623Z,97687.44
2023-08-15T08:25:32.084Z,97677.69
2023-08-15T08:29:36.898Z,97692.44
2023-08-15T08:33:43.063Z,97677.97
2023-08-15T08:37:48.683Z,97679.91
2023-08-15T08:41:52.438Z,97679.28
2023-08-15T08:46:02.656Z,97680.84
2023-08-15T08:50:11.097Z,97686.88
2023-08-15T08:54:15.570Z,97690.03
2023-08-15T08:58:20.988Z,97689.81
2023-08-15T09:02:26.291Z,97688.69
2023-08-15T09:06:31.230Z,97685.06
2023-08-15T09:10:36.749Z,97686.03
2023-08-15T09:14:42.949Z,97674.25
2023-08-15T09:18:49.920Z,97674.94
2023-08-15T09:22:55.725Z,97669.06
2023-08-15T09:26:59.648Z,97672.88
2023-08-15T09:31:05.763Z,97664.41
2023-08-15T09:35:12.584Z,97674.53
2023-08-15T09:39:16.651Z,97664.91
2023-08-15T09:43:21.519Z,97662.78
2023-08-15T09:47:27.603Z,97664.41
2023-08-15T09:51:32.360Z,97665.22
2023-08-15T09:55:38.729Z,97660.97
2023-08-15T09:59:42.335Z,97657.06
2023-08-15T10:03:47.329Z,97652.34
2023-08-15T10:07:52.844Z,97652.72
2023-08-15T10:11:58.302Z,97657.75
2023-08-15T10:16:03.066Z,97653.50
2023-08-15T10:20:12.282Z,97650.78
2023-08-15T10:24:18.014Z,97653.00
2023-08-15T10:28:25.012Z,97645.25
2023-08-15T10:32:30.045Z,97641.53
2023-08-15T10:36:34.943Z,97638.13
2023-08-15T10:40:42.016Z,97634.59
2023-08-15T10:45:00.793Z,97640.19
2023-08-15T10:49:10.592Z,97633.97
2023-08-15T10:53:15.745Z,97633.50
2023-08-15T10:57:24.082Z,97643.03
2023-08-15T11:01:28.997Z,97635.97
2023-08-15T11:05:32.914Z,97633.25
2023-08-15T11:09:37.463Z,97629.22
2023-08-15T11:13:44.201Z,97629.09
2023-08-15T11:22:00.244Z,97623.94
2023-08-15T11:26:04.935Z,97622.56
2023-08-15T11:30:13.431Z,97608.16
2023-08-15T11:34:17.760Z,97605.97
2023-08-15T11:38:21.304Z,97605.97
2023-08-15T11:42:25.326Z,97602.56
2023-08-15T11:46:47.053Z,97607.97
2023-08-15T11:50:56.859Z,97600.94
2023-08-15T11:55:07.735Z,97601.09
2023-08-15T11:59:18.207Z,97606.66
2023-08-15T12:03:24.215Z,97606.22
2023-08-15T12:07:27.694Z,97593.94
2023-08-15T12:11:32.970Z,97584.47
2023-08-15T12:15:36.469Z,97585.81
2023-08-15T12:19:41.435Z,97587.50
2023-08-15T12:23:47.677Z,97587.41
2023-08-15T12:27:51.663Z,97575.00
2023-08-15T12:31:55.086Z,97567.69
2023-08-15T12:36:00.182Z,97562.41
2023-08-15T12:40:14.820Z,97556.72
2023-08-15T12:44:25.151Z,97551.44
2023-08-15T12:48:28.624Z,97556.91
2023-08-15T12:52:34.023Z,97548.78
2023-08-15T12:56:37.721Z,97541.53
2023-08-15T13:00:43.409Z,97538.28
2023-08-15T13:04:47.074Z,97531.97
2023-08-15T13:08:52.186Z,97526.31
2023-08-15T13:12:55.608Z,97525.06
2023-08-15T13:17:05.103Z,97521.38
2023-08-15T13:21:10.085Z,97527.97
2023-08-15T13:25:15.282Z,97513.91
2023-08-15T13:29:19.141Z,97510.81
2023-08-15T13:33:22.663Z,97509.31
2023-08-15T13:37:28.805Z,97501.59
2023-08-15T13:41:34.458Z,97492.13
2023-08-15T13:45:38.251Z,97487.38
2023-08-15T13:49:41.857Z,97476.75
2023-08-15T13:53:46.660Z,97465.47
2023-08-15T13:57:52.412Z,97473.66
2023-08-15T14:01:56.074Z,97469.25
2023-08-15T14:05:59.705Z,97445.88
2023-08-15T14:10:04.911Z,97444.34
2023-08-15T14:14:09.953Z,97435.88
2023-08-15T14:18:14.264Z,97442.13
2023-08-15T14:22:17.474Z,97438.25
2023-08-15T14:26:21.139Z,97440.97
2023-08-15T14:30:26.776Z,97439.16
2023-08-15T14:34:30.765Z,97434.47
2023-08-15T14:38:34.188Z,97422.22
2023-08-15T14:42:38.542Z,97425.88
2023-08-15T14:46:47.407Z,97426.13
2023-08-15T14:50:52.390Z,97413.63
2023-08-15T14:54:56.021Z,97410.91
2023-08-15T14:59:01.579Z,97401.09
2023-08-15T15:03:07.324Z,97398.84
2023-08-15T15:07:10.953Z,97399.69
2023-08-15T15:11:16.479Z,97396.75
2023-08-15T15:15:22.124Z,97399.47
2023-08-15T15:19:34.392Z,97395.38
2023-08-15T15:23:37.652Z,97387.41
2023-08-15T15:27:41.022Z,97384.38
2023-08-15T15:31:49.329Z,97383.00
2023-08-15T15:35:54.546Z,97377.28
2023-08-15T15:39:57.919Z,97381.69
2023-08-15T15:44:01.440Z,97387.66
2023-08-15T15:48:06.853Z,97391.19
2023-08-15T15:52:11.968Z,97401.34
2023-08-15T15:56:15.356Z,97389.25
2023-08-15T16:00:20.921Z,97393.63
2023-08-15T16:04:24.796Z,97405.38
2023-08-15T16:08:30.061Z,97399.63
2023-08-15T16:12:34.478Z,97401.59
2023-08-15T16:16:39.676Z,97403.22
2023-08-15T16:20:43.095Z,97413.22
2023-08-15T16:24:49.884Z,97421.06
2023-08-15T16:28:53.288Z,97426.81
2023-08-15T16:32:57.490Z,97426.84
2023-08-15T16:37:01.776Z,97425.59
2023-08-15T16:41:07.411Z,97423.66
2023-08-15T16:45:12.021Z,97421.81
2023-08-15T16:49:15.698Z,97430.53
2023-08-15T16:53:20.701Z,97433.50
2023-08-15T16:57:25.935Z,97434.66
2023-08-15T17:01:29.807Z,97442.38
2023-08-15T17:05:33.668Z,97450.72
2023-08-15T17:09:37.012Z,97442.44
2023-08-15T17:13:42.936Z,97447.22
2023-08-15T17:17:47.428Z,97451.91
2023-08-15T17:21:50.726Z,97459.19
2023-08-15T17:25:54.540Z,97460.22
2023-08-15T17:30:00.033Z,97467.63
2023-08-15T17:34:03.881Z,97469.66
2023-08-15T17:38:07.811Z,97486.09
2023-08-15T17:42:11.416Z,97505.19
2023-08-15T17:46:16.226Z,97503.53
2023-08-15T17:50:19.893Z,97505.41
2023-08-15T17:54:23.319Z,97523.81
2023-08-15T17:58:26.769Z,97535.03
2023-08-15T18:02:31.734Z,97551.31
2023-08-15T18:06:35.809Z,97560.00
2023-08-15T18:10:39.516Z,97575.97
2023-08-15T18:14:44.361Z,97590.31
2023-08-15T18:18:49.363Z,97595.75
2023-08-15T18:22:53.242Z,97613.50
2023-08-15T18:26:56.972Z,97660.25
2023-08-15T18:31:02.009Z,97672.09
2023-08-15T18:35:09.088Z,97695.19
2023-08-15T18:39:12.317Z,97710.75
2023-08-15T18:43:15.726Z,97732.66
2023-08-15T18:47:18.986Z,97742.25
2023-08-15T18:51:25.013Z,97737.84
2023-08-15T18:55:28.250Z,97773.53
2023-08-15T18:59:31.781Z,97776.84
2023-08-15T19:03:35.577Z,97781.53
2023-08-15T19:07:40.989Z,97800.91
2023-08-15T19:11:44.151Z,97805.06
2023-08-15T19:15:48.001Z,97796.94
2023-08-15T19:19:57.887Z,97804.59
2023-08-15T19:24:02.882Z,97809.03
2023-08-15T19:28:07.366Z,97819.63
2023-08-15T19:32:12.174Z,97821.94
2023-08-15T19:36:18.344Z,97827.28
2023-08-15T19:40:23.506Z,97828.34
2023-08-15T19:44:27.153Z,97828.09
2023-08-15T19:48:31.881Z,97833.44
2023-08-15T19:52:36.391Z,97831.34
2023-08-15T19:56:41.746Z,97830.81
2023-08-15T20:00:46.193Z,97835.03
2023-08-15T20:04:52.235Z,97847.84
2023-08-15T20:08:56.141Z,97843.00
2023-08-15T20:13:01.214Z,97836.59
2023-08-15T20:17:04.713Z,97824.69
2023-08-15T20:21:10.225Z,97822.84
2023-08-15T20:25:14.000Z,97824.63
2023-08-15T20:29:19.574Z,97810.59
2023-08-15T20:33:22.993Z,97812.59
2023-08-15T20:37:26.800Z,97814.56
2023-08-15T20:41:30.755Z,97823.72
2023-08-15T20:45:36.593Z,97839.81
2023-08-15T20:49:43.286Z,97834.31
2023-08-15T20:53:46.610Z,97844.81
2023-08-15T20:57:50.277Z,97846.84
2023-08-15T21:01:55.412Z,97851.53
2023-08-15T21:06:00.609Z,97842.06
2023-08-15T21:10:04.011Z,97842.25
2023-08-15T21:14:07.343Z,97843.44
2023-08-15T21:18:13.099Z,97848.38
2023-08-15T21:22:16.526Z,97840.75
2023-08-15T21:26:20.241Z,97860.81
2023-08-15T21:30:23.905Z,97857.97
2023-08-15T21:34:30.225Z,97872.69
2023-08-15T21:38:33.628Z,97877.75
2023-08-15T21:42:37.129Z,97882.38
2023-08-15T21:46:40.324Z,97881.72
2023-08-15T21:50:45.165Z,97873.63
2023-08-15T21:54:48.625Z,97871.63
2023-08-15T21:58:51.792Z,97863.09
2023-08-15T22:02:58.103Z,97865.06
2023-08-15T22:07:03.269Z,97868.31
2023-08-15T22:11:07.268Z,97856.97
2023-08-15T22:15:11.578Z,97857.88
2023-08-15T22:19:15.285Z,97869.88
2023-08-15T22:23:20.207Z,97880.06
2023-08-15T22:27:24.168Z,97880.28
2023-08-15T22:31:28.139Z,97877.06
2023-08-15T22:35:38.682Z,97873.34
2023-08-15T22:39:43.659Z,97879.16
2023-08-15T22:43:46.860Z,97872.69
2023-08-15T22:47:50.605Z,97868.06
2023-08-15T22:51:54.042Z,97869.81
2023-08-15T22:56:02.841Z,97861.47
2023-08-15T23:00:07.511Z,97871.19
2023-08-15T23:04:11.375Z,97870.63
2023-08-15T23:08:14.724Z,97857.22
2023-08-15T23:12:19.739Z,97856.09
2023-08-15T23:16:23.331Z,97854.94
2023-08-15T23:20:26.828Z,97856.66
2023-08-15T23:24:31.077Z,97858.41
2023-08-15T23:28:36.361Z,97857.72
2023-08-15T23:32:41.356Z,97853.00
2023-08-15T23:36:45.256Z,97850.69
2023-08-15T23:40:48.912Z,97847.56
2023-08-15T23:44:55.314Z,97853.81
2023-08-15T23:48:59.459Z,97851.25
2023-08-15T23:53:03.654Z,97847.91
2023-08-15T23:57:07.160Z,97845.91
